sensor_id;sensor_type;location;lat;lon;timestamp;pressure;altitude;pressure_sealevel;temperature;humidity
59831;BME280;45711;50.108;13.712;2024-01-27T00:00:16;99095.06;;;4.20;100.00
59831;BME280;45711;50.108;13.712;2024-01-27T00:02:42;99087.50;;;4.17;100.00
59831;BME280;45711;50.108;13.712;2024-01-27T00:05:07;99086.28;;;4.13;100.00
59831;BME280;45711;50.108;13.712;2024-01-27T00:07:33;99070.63;;;4.04;100.00
59831;BME280;45711;50.108;13.712;2024-01-27T00:09:59;99094.81;;;4.21;100.00
59831;BME280;45711;50.108;13.712;2024-01-27T00:12:26;99116.56;;;4.43;100.00
59831;BME280;45711;50.108;13.712;2024-01-27T00:14:51;99121.31;;;4.21;100.00
59831;BME280;45711;50.108;13.712;2024-01-27T00:17:18;99130.22;;;4.47;100.00
59831;BME280;45711;50.108;13.712;2024-01-27T00:19:49;99135.53;;;4.47;100.00
59831;BME280;45711;50.108;13.712;2024-01-27T00:22:18;99145.50;;;4.58;100.00
59831;BME280;45711;50.108;13.712;2024-01-27T00:24:49;99147.75;;;4.54;100.00
59831;BME280;45711;50.108;13.712;2024-01-27T00:27:17;99139.00;;;4.47;100.00
59831;BME280;45711;50.108;13.712;2024-01-27T00:29:43;99139.44;;;4.38;100.00
59831;BME280;45711;50.108;13.712;2024-01-27T00:32:08;99131.06;;;4.34;100.00
59831;BME280;45711;50.108;13.712;2024-01-27T00:34:35;99138.59;;;4.44;100.00
59831;BME280;45711;50.108;13.712;2024-01-27T00:37:01;99136.97;;;4.43;100.00
59831;BME280;45711;50.108;13.712;2024-01-27T00:39:27;99142.28;;;4.43;100.00
59831;BME280;45711;50.108;13.712;2024-01-27T00:41:52;99149.59;;;4.54;100.00
59831;BME280;45711;50.108;13.712;2024-01-27T00:44:20;99147.97;;;4.46;100.00
59831;BME280;45711;50.108;13.712;2024-01-27T00:46:45;99141.84;;;4.46;100.00
59831;BME280;45711;50.108;13.712;2024-01-27T00:49:11;99130.72;;;4.17;100.00
59831;BME280;45711;50.108;13.712;2024-01-27T00:51:38;99132.94;;;4.20;100.00
59831;BME280;45711;50.108;13.712;2024-01-27T00:54:05;99138.84;;;4.29;100.00
59831;BME280;45711;50.108;13.712;2024-01-27T00:56:31;99117.94;;;3.88;100.00
59831;BME280;45711;50.108;13.712;2024-01-27T00:58:57;99113.47;;;3.88;100.00
59831;BME280;45711;50.108;13.712;2024-01-27T01:01:23;99126.22;;;4.24;100.00
59831;BME280;45711;50.108;13.712;2024-01-27T01:03:48;99138.03;;;4.22;100.00
59831;BME280;45711;50.108;13.712;2024-01-27T01:06:14;99121.16;;;4.03;100.00
59831;BME280;45711;50.108;13.712;2024-01-27T01:08:41;99119.16;;;3.85;100.00
59831;BME280;45711;50.108;13.712;2024-01-27T01:11:06;99141.34;;;3.91;100.00
59831;BME280;45711;50.108;13.712;2024-01-27T01:13:32;99141.34;;;4.11;100.00
59831;BME280;45711;50.108;13.712;2024-01-27T01:15:58;99145.03;;;3.96;100.00
59831;BME280;45711;50.108;13.712;2024-01-27T01:18:23;99143.81;;;3.86;100.00
59831;BME280;45711;50.108;13.712;2024-01-27T01:20:49;99138.91;;;4.02;100.00
59831;BME280;45711;50.108;13.712;2024-01-27T01:23:14;99142.13;;;4.04;100.00
59831;BME280;45711;50.108;13.712;2024-01-27T01:25:41;99152.16;;;3.89;100.00
59831;BME280;45711;50.108;13.712;2024-01-27T01:28:08;99143.81;;;3.86;100.00
59831;BME280;45711;50.108;13.712;2024-01-27T01:30:33;99152.13;;;3.96;100.00
59831;BME280;45711;50.108;13.712;2024-01-27T01:32:59;99159.06;;;3.90;100.00
59831;BME280;45711;50.108;13.712;2024-01-27T01:35:24;99160.91;;;3.63;100.00
59831;BME280;45711;50.108;13.712;2024-01-27T01:37:50;99153.59;;;3.72;100.00
59831;BME280;45711;50.108;13.712;2024-01-27T01:40:16;99170.66;;;3.96;100.00
59831;BME280;45711;50.108;13.712;2024-01-27T01:42:43;99155.81;;;3.68;100.00
59831;BME280;45711;50.108;13.712;2024-01-27T01:45:10;99158.66;;;3.73;100.00
59831;BME280;45711;50.108;13.712;2024-01-27T01:47:37;99161.31;;;3.67;100.00
59831;BME280;45711;50.108;13.712;2024-01-27T01:50:05;99157.25;;;3.58;100.00
59831;BME280;45711;50.108;13.712;2024-01-27T01:52:31;99177.81;;;3.95;100.00
59831;BME280;45711;50.108;13.712;2024-01-27T01:54:57;99183.31;;;3.81;100.00
59831;BME280;45711;50.108;13.712;2024-01-27T01:57:22;99182.09;;;3.90;100.00
59831;BME280;45711;50.108;13.712;2024-01-27T01:59:49;99188.41;;;3.89;100.00
59831;BME280;45711;50.108;13.712;2024-01-27T02:02:15;99172.72;;;3.74;100.00
59831;BME280;45711;50.108;13.712;2024-01-27T02:04:41;99175.34;;;3.74;100.00
59831;BME280;45711;50.108;13.712;2024-01-27T02:07:07;99186.56;;;3.76;100.00
59831;BME280;45711;50.108;13.712;2024-01-27T02:09:33;99187.59;;;3.68;100.00
59831;BME280;45711;50.108;13.712;2024-01-27T02:11:59;99182.31;;;3.62;100.00
59831;BME280;45711;50.108;13.712;2024-01-27T02:14:24;99175.59;;;3.66;100.00
59831;BME280;45711;50.108;13.712;2024-01-27T02:16:54;99182.06;;;3.57;100.00
59831;BME280;45711;50.108;13.712;2024-01-27T02:19:19;99180.03;;;3.52;100.00
59831;BME280;45711;50.108;13.712;2024-01-27T02:21:45;99193.91;;;3.87;100.00
59831;BME280;45711;50.108;13.712;2024-01-27T02:24:12;99180.88;;;3.59;100.00
59831;BME280;45711;50.108;13.712;2024-01-27T02:26:37;99178.63;;;3.63;100.00
59831;BME280;45711;50.108;13.712;2024-01-27T02:29:03;99175.56;;;3.59;100.00
59831;BME280;45711;50.108;13.712;2024-01-27T02:31:29;99188.19;;;3.77;100.00
59831;BME280;45711;50.108;13.712;2024-01-27T02:33:54;99183.72;;;3.58;100.00
59831;BME280;45711;50.108;13.712;2024-01-27T02:36:20;99184.53;;;3.58;100.00
59831;BME280;45711;50.108;13.712;2024-01-27T02:38:45;99178.78;;;3.48;100.00
59831;BME280;45711;50.108;13.712;2024-01-27T02:41:12;99198.59;;;3.72;100.00
59831;BME280;45711;50.108;13.712;2024-01-27T02:43:38;99186.75;;;3.41;100.00
59831;BME280;45711;50.108;13.712;2024-01-27T02:46:06;99197.56;;;3.53;100.00
59831;BME280;45711;50.108;13.712;2024-01-27T02:48:32;99191.44;;;3.46;100.00
59831;BME280;45711;50.108;13.712;2024-01-27T02:50:57;99186.94;;;3.46;100.00
59831;BME280;45711;50.108;13.712;2024-01-27T02:53:23;99184.47;;;3.18;100.00
59831;BME280;45711;50.108;13.712;2024-01-27T02:55:48;99180.19;;;3.31;100.00
59831;BME280;45711;50.108;13.712;2024-01-27T02:58:15;99184.00;;;3.01;100.00
59831;BME280;45711;50.108;13.712;2024-01-27T03:00:41;99196.03;;;3.17;100.00
59831;BME280;45711;50.108;13.712;2024-01-27T03:03:07;99190.69;;;3.04;100.00
59831;BME280;45711;50.108;13.712;2024-01-27T03:05:32;99189.75;;;3.18;100.00
59831;BME280;45711;50.108;13.712;2024-01-27T03:07:58;99192.97;;;3.07;100.00
59831;BME280;45711;50.108;13.712;2024-01-27T03:10:23;99199.44;;;2.98;100.00
59831;BME280;45711;50.108;13.712;2024-01-27T03:12:49;99199.06;;;3.01;100.00
59831;BME280;45711;50.108;13.712;2024-01-27T03:15:16;99202.63;;;2.80;100.00
59831;BME280;45711;50.108;13.712;2024-01-27T03:17:41;99204.63;;;2.78;100.00
59831;BME280;45711;50.108;13.712;2024-01-27T03:20:08;99221.56;;;2.84;100.00
59831;BME280;45711;50.108;13.712;2024-01-27T03:22:34;99223.88;;;2.65;100.00
59831;BME280;45711;50.108;13.712;2024-01-27T03:25:00;99219.38;;;2.59;100.00
59831;BME280;45711;50.108;13.712;2024-01-27T03:27:25;99230.13;;;2.92;100.00
59831;BME280;45711;50.108;13.712;2024-01-27T03:29:51;99236.09;;;2.66;100.00
59831;BME280;45711;50.108;13.712;2024-01-27T03:32:17;99233.03;;;2.63;100.00
59831;BME280;45711;50.108;13.712;2024-01-27T03:34:44;99231.63;;;2.67;100.00
59831;BME280;45711;50.108;13.712;2024-01-27T03:37:10;99233.75;;;2.85;100.00
59831;BME280;45711;50.108;13.712;2024-01-27T03:39:36;99239.47;;;2.88;100.00
59831;BME280;45711;50.108;13.712;2024-01-27T03:42:02;99242.81;;;2.69;100.00
59831;BME280;45711;50.108;13.712;2024-01-27T03:44:28;99235.44;;;2.58;100.00
59831;BME280;45711;50.108;13.712;2024-01-27T03:46:53;99246.25;;;2.63;100.00
59831;BME280;45711;50.108;13.712;2024-01-27T03:49:20;99250.44;;;2.50;100.00
59831;BME280;45711;50.108;13.712;2024-01-27T03:51:46;99260.97;;;2.78;100.00
59831;BME280;45711;50.108;13.712;2024-01-27T03:54:11;99266.50;;;2.84;100.00
59831;BME280;45711;50.108;13.712;2024-01-27T03:56:37;99261.81;;;2.79;100.00
59831;BME280;45711;50.108;13.712;2024-01-27T03:59:02;99262.25;;;2.89;100.00
59831;BME280;45711;50.108;13.712;2024-01-27T04:01:30;99278.03;;;3.11;100.00
59831;BME280;45711;50.108;13.712;2024-01-27T04:03:55;99274.28;;;2.98;100.00
59831;BME280;45711;50.108;13.712;2024-01-27T04:06:22;99285.19;;;3.23;100.00
59831;BME280;45711;50.108;13.712;2024-01-27T04:08:48;99280.69;;;3.17;100.00
59831;BME280;45711;50.108;13.712;2024-01-27T04:11:19;99281.09;;;3.21;100.00
59831;BME280;45711;50.108;13.712;2024-01-27T04:13:45;99302.16;;;3.36;100.00
59831;BME280;45711;50.108;13.712;2024-01-27T04:16:11;99290.38;;;2.97;100.00
59831;BME280;45711;50.108;13.712;2024-01-27T04:18:38;99296.44;;;3.32;100.00
59831;BME280;45711;50.108;13.712;2024-01-27T04:21:04;99305.44;;;3.44;100.00
59831;BME280;45711;50.108;13.712;2024-01-27T04:23:31;99288.84;;;2.81;100.00
59831;BME280;45711;50.108;13.712;2024-01-27T04:25:57;99302.00;;;3.02;100.00
59831;BME280;45711;50.108;13.712;2024-01-27T04:28:23;99292.72;;;2.85;100.00
59831;BME280;45711;50.108;13.712;2024-01-27T04:30:49;99304.78;;;2.94;100.00
59831;BME280;45711;50.108;13.712;2024-01-27T04:33:14;99317.25;;;3.00;100.00
59831;BME280;45711;50.108;13.712;2024-01-27T04:35:40;99312.94;;;2.93;100.00
59831;BME280;45711;50.108;13.712;2024-01-27T04:38:07;99316.47;;;2.78;100.00
59831;BME280;45711;50.108;13.712;2024-01-27T04:40:34;99325.72;;;2.96;100.00
59831;BME280;45711;50.108;13.712;2024-01-27T04:43:00;99330.13;;;3.17;100.00
59831;BME280;45711;50.108;13.712;2024-01-27T04:45:26;99336.78;;;3.47;100.00
59831;BME280;45711;50.108;13.712;2024-01-27T04:47:52;99337.47;;;3.21;100.00
59831;BME280;45711;50.108;13.712;2024-01-27T04:50:18;99327.47;;;2.82;100.00
59831;BME280;45711;50.108;13.712;2024-01-27T04:52:44;99331.53;;;2.78;100.00
59831;BME280;45711;50.108;13.712;2024-01-27T04:55:10;99321.97;;;2.77;100.00
59831;BME280;45711;50.108;13.712;2024-01-27T04:57:37;99337.03;;;3.11;100.00
59831;BME280;45711;50.108;13.712;2024-01-27T05:00:03;99324.25;;;2.87;100.00
59831;BME280;45711;50.108;13.712;2024-01-27T05:02:32;99332.59;;;2.84;100.00
59831;BME280;45711;50.108;13.712;2024-01-27T05:04:58;99327.22;;;2.70;100.00
59831;BME280;45711;50.108;13.712;2024-01-27T05:07:23;99320.16;;;2.49;100.00
59831;BME280;45711;50.108;13.712;2024-01-27T05:09:49;99325.44;;;2.49;100.00
59831;BME280;45711;50.108;13.712;2024-01-27T05:12:15;99326.50;;;2.55;100.00
59831;BME280;45711;50.108;13.712;2024-01-27T05:14:44;99326.53;;;2.34;100.00
59831;BME280;45711;50.108;13.712;2024-01-27T05:17:12;99335.34;;;2.41;100.00
59831;BME280;45711;50.108;13.712;2024-01-27T05:19:37;99331.16;;;2.53;100.00
59831;BME280;45711;50.108;13.712;2024-01-27T05:22:03;99329.34;;;2.54;100.00
59831;BME280;45711;50.108;13.712;2024-01-27T05:24:29;99329.84;;;2.42;100.00
59831;BME280;45711;50.108;13.712;2024-01-27T05:26:54;99335.72;;;2.16;100.00
59831;BME280;45711;50.108;13.712;2024-01-27T05:29:20;99347.88;;;2.60;100.00
59831;BME280;45711;50.108;13.712;2024-01-27T05:31:47;99345.44;;;2.37;100.00
59831;BME280;45711;50.108;13.712;2024-01-27T05:34:13;99343.00;;;2.36;100.00
59831;BME280;45711;50.108;13.712;2024-01-27T05:36:39;99340.84;;;2.46;100.00
59831;BME280;45711;50.108;13.712;2024-01-27T05:39:05;99355.44;;;2.63;100.00
59831;BME280;45711;50.108;13.712;2024-01-27T05:41:31;99334.56;;;2.47;100.00
59831;BME280;45711;50.108;13.712;2024-01-27T05:43:56;99340.78;;;2.39;100.00
59831;BME280;45711;50.108;13.712;2024-01-27T05:46:23;99337.69;;;2.57;100.00
59831;BME280;45711;50.108;13.712;2024-01-27T05:48:50;99338.78;;;2.41;100.00
59831;BME280;45711;50.108;13.712;2024-01-27T05:51:19;99339.28;;;2.30;100.00
59831;BME280;45711;50.108;13.712;2024-01-27T05:53:44;99324.91;;;2.11;100.00
59831;BME280;45711;50.108;13.712;2024-01-27T05:56:10;99333.09;;;2.66;100.00
59831;BME280;45711;50.108;13.712;2024-01-27T05:58:36;99322.75;;;2.00;100.00
59831;BME280;45711;50.108;13.712;2024-01-27T06:01:02;99328.94;;;2.07;100.00
59831;BME280;45711;50.108;13.712;2024-01-27T06:03:28;99333.03;;;2.10;100.00
59831;BME280;45711;50.108;13.712;2024-01-27T06:05:55;99330.44;;;1.95;100.00
59831;BME280;45711;50.108;13.712;2024-01-27T06:08:20;99320.31;;;1.98;100.00
59831;BME280;45711;50.108;13.712;2024-01-27T06:10:46;99323.31;;;2.17;100.00
59831;BME280;45711;50.108;13.712;2024-01-27T06:13:12;99345.38;;;2.31;100.00
59831;BME280;45711;50.108;13.712;2024-01-27T06:15:37;99335.91;;;2.15;100.00
59831;BME280;45711;50.108;13.712;2024-01-27T06:18:04;99343.03;;;2.14;100.00
59831;BME280;45711;50.108;13.712;2024-01-27T06:20:29;99342.69;;;2.24;100.00
59831;BME280;45711;50.108;13.712;2024-01-27T06:22:56;99347.03;;;2.32;100.00
59831;BME280;45711;50.108;13.712;2024-01-27T06:25:23;99359.25;;;2.33;100.00
59831;BME280;45711;50.108;13.712;2024-01-27T06:27:48;99350.28;;;2.34;100.00
59831;BME280;45711;50.108;13.712;2024-01-27T06:30:14;99360.97;;;2.47;100.00
59831;BME280;45711;50.108;13.712;2024-01-27T06:32:41;99358.88;;;2.14;100.00
59831;BME280;45711;50.108;13.712;2024-01-27T06:35:07;99360.00;;;2.05;100.00
59831;BME280;45711;50.108;13.712;2024-01-27T06:37:33;99365.44;;;2.04;100.00
59831;BME280;45711;50.108;13.712;2024-01-27T06:40:00;99358.75;;;2.01;100.00
59831;BME280;45711;50.108;13.712;2024-01-27T06:42:25;99354.59;;;1.92;100.00
59831;BME280;45711;50.108;13.712;2024-01-27T06:44:51;99357.13;;;1.85;100.00
59831;BME280;45711;50.108;13.712;2024-01-27T06:47:16;99360.44;;;1.87;100.00
59831;BME280;45711;50.108;13.712;2024-01-27T06:49:42;99362.88;;;1.89;100.00
59831;BME280;45711;50.108;13.712;2024-01-27T06:52:08;99372.56;;;2.03;100.00
59831;BME280;45711;50.108;13.712;2024-01-27T06:54:33;99377.09;;;2.31;100.00
59831;BME280;45711;50.108;13.712;2024-01-27T06:57:00;99364.50;;;1.90;100.00
59831;BME280;45711;50.108;13.712;2024-01-27T06:59:26;99370.78;;;1.89;100.00
59831;BME280;45711;50.108;13.712;2024-01-27T07:01:51;99379.16;;;1.92;100.00
59831;BME280;45711;50.108;13.712;2024-01-27T07:04:17;99389.22;;;2.04;100.00
59831;BME280;45711;50.108;13.712;2024-01-27T07:06:43;99383.38;;;2.08;100.00
59831;BME280;45711;50.108;13.712;2024-01-27T07:09:10;99385.41;;;2.06;100.00
59831;BME280;45711;50.108;13.712;2024-01-27T07:11:36;99392.25;;;2.00;100.00
59831;BME280;45711;50.108;13.712;2024-01-27T07:14:03;99386.81;;;1.87;100.00
59831;BME280;45711;50.108;13.712;2024-01-27T07:16:29;99395.44;;;1.96;100.00
59831;BME280;45711;50.108;13.712;2024-01-27T07:18:54;99398.47;;;1.93;100.00
59831;BME280;45711;50.108;13.712;2024-01-27T07:21:20;99400.72;;;1.96;100.00
59831;BME280;45711;50.108;13.712;2024-01-27T07:23:45;99396.19;;;1.90;100.00
59831;BME280;45711;50.108;13.712;2024-01-27T07:26:12;99409.28;;;1.98;100.00
59831;BME280;45711;50.108;13.712;2024-01-27T07:28:40;99417.66;;;2.01;100.00
59831;BME280;45711;50.108;13.712;2024-01-27T07:31:07;99414.19;;;2.01;100.00
59831;BME280;45711;50.108;13.712;2024-01-27T07:33:33;99425.03;;;2.49;100.00
59831;BME280;45711;50.108;13.712;2024-01-27T07:36:02;99414.47;;;2.28;100.00
59831;BME280;45711;50.108;13.712;2024-01-27T07:38:28;99436.00;;;2.74;100.00
59831;BME280;45711;50.108;13.712;2024-01-27T07:40:53;99440.34;;;2.82;100.00
59831;BME280;45711;50.108;13.712;2024-01-27T07:43:19;99456.50;;;3.15;100.00
59831;BME280;45711;50.108;13.712;2024-01-27T07:45:44;99460.50;;;3.73;100.00
59831;BME280;45711;50.108;13.712;2024-01-27T07:48:11;99454.94;;;4.03;100.00
59831;BME280;45711;50.108;13.712;2024-01-27T07:50:37;99453.69;;;3.99;100.00
59831;BME280;45711;50.108;13.712;2024-01-27T07:53:03;99445.03;;;3.70;100.00
59831;BME280;45711;50.108;13.712;2024-01-27T07:55:29;99448.59;;;3.97;100.00
59831;BME280;45711;50.108;13.712;2024-01-27T07:57:55;99447.94;;;3.47;100.00
59831;BME280;45711;50.108;13.712;2024-01-27T08:00:20;99458.75;;;3.52;100.00
59831;BME280;45711;50.108;13.712;2024-01-27T08:02:46;99463.94;;;3.67;100.00
59831;BME280;45711;50.108;13.712;2024-01-27T08:05:14;99466.28;;;3.49;100.00
59831;BME280;45711;50.108;13.712;2024-01-27T08:07:39;99452.47;;;3.25;100.00
59831;BME280;45711;50.108;13.712;2024-01-27T08:10:05;99455.88;;;3.47;100.00
59831;BME280;45711;50.108;13.712;2024-01-27T08:12:31;99453.13;;;3.27;100.00
59831;BME280;45711;50.108;13.712;2024-01-27T08:14:57;99453.13;;;3.27;100.00
59831;BME280;45711;50.108;13.712;2024-01-27T08:17:22;99471.69;;;3.34;100.00
59831;BME280;45711;50.108;13.712;2024-01-27T08:19:48;99456.78;;;2.98;100.00
59831;BME280;45711;50.108;13.712;2024-01-27T08:22:15;99462.84;;;3.20;100.00
59831;BME280;45711;50.108;13.712;2024-01-27T08:24:41;99451.97;;;3.09;100.00
59831;BME280;45711;50.108;13.712;2024-01-27T08:27:06;99460.41;;;3.25;100.00
59831;BME280;45711;50.108;13.712;2024-01-27T08:29:38;99458.81;;;3.59;100.00
59831;BME280;45711;50.108;13.712;2024-01-27T08:32:06;99461.22;;;3.95;100.00
59831;BME280;45711;50.108;13.712;2024-01-27T08:34:32;99476.06;;;3.90;100.00
59831;BME280;45711;50.108;13.712;2024-01-27T08:37:00;99477.41;;;3.72;100.00
59831;BME280;45711;50.108;13.712;2024-01-27T08:39:27;99478.81;;;3.68;100.00
59831;BME280;45711;50.108;13.712;2024-01-27T08:41:52;99486.44;;;3.85;100.00
59831;BME280;45711;50.108;13.712;2024-01-27T08:44:18;99497.88;;;4.40;100.00
59831;BME280;45711;50.108;13.712;2024-01-27T08:46:44;99498.50;;;4.55;100.00
59831;BME280;45711;50.108;13.712;2024-01-27T08:49:11;99493.06;;;4.76;100.00
59831;BME280;45711;50.108;13.712;2024-01-27T08:51:40;99501.81;;;4.64;100.00
59831;BME280;45711;50.108;13.712;2024-01-27T08:54:05;99511.97;;;4.53;100.00
59831;BME280;45711;50.108;13.712;2024-01-27T08:56:32;99507.50;;;4.61;100.00
59831;BME280;45711;50.108;13.712;2024-01-27T08:59:00;99507.91;;;4.64;100.00
59831;BME280;45711;50.108;13.712;2024-01-27T09:01:25;99510.16;;;4.74;100.00
59831;BME280;45711;50.108;13.712;2024-01-27T09:03:51;99524.66;;;4.78;100.00
59831;BME280;45711;50.108;13.712;2024-01-27T09:06:17;99503.28;;;5.19;100.00
59831;BME280;45711;50.108;13.712;2024-01-27T09:08:44;99527.09;;;4.73;100.00
59831;BME280;45711;50.108;13.712;2024-01-27T09:11:10;99540.78;;;4.83;100.00
59831;BME280;45711;50.108;13.712;2024-01-27T09:13:37;99519.81;;;5.21;100.00
59831;BME280;45711;50.108;13.712;2024-01-27T09:16:03;99521.22;;;5.04;100.00
59831;BME280;45711;50.108;13.712;2024-01-27T09:18:29;99520.22;;;5.25;100.00
59831;BME280;45711;50.108;13.712;2024-01-27T09:20:55;99515.91;;;5.04;100.00
59831;BME280;45711;50.108;13.712;2024-01-27T09:23:21;99529.09;;;4.44;100.00
59831;BME280;45711;50.108;13.712;2024-01-27T09:25:49;99551.00;;;4.25;100.00
59831;BME280;45711;50.108;13.712;2024-01-27T09:28:15;99541.66;;;4.22;100.00
59831;BME280;45711;50.108;13.712;2024-01-27T09:30:42;99551.78;;;4.12;100.00
59831;BME280;45711;50.108;13.712;2024-01-27T09:33:08;99550.94;;;4.05;100.00
59831;BME280;45711;50.108;13.712;2024-01-27T09:35:34;99534.78;;;4.00;100.00
59831;BME280;45711;50.108;13.712;2024-01-27T09:37:59;99539.88;;;3.95;100.00
59831;BME280;45711;50.108;13.712;2024-01-27T09:40:25;99545.16;;;3.95;100.00
59831;BME280;45711;50.108;13.712;2024-01-27T09:42:52;99536.84;;;3.98;100.00
59831;BME280;45711;50.108;13.712;2024-01-27T09:45:21;99533.81;;;4.01;100.00
59831;BME280;45711;50.108;13.712;2024-01-27T09:47:49;99537.44;;;4.00;100.00
59831;BME280;45711;50.108;13.712;2024-01-27T09:50:20;99538.63;;;3.91;100.00
59831;BME280;45711;50.108;13.712;2024-01-27T09:52:47;99545.59;;;3.98;100.00
59831;BME280;45711;50.108;13.712;2024-01-27T09:55:12;99545.97;;;3.95;100.00
59831;BME280;45711;50.108;13.712;2024-01-27T09:57:38;99552.53;;;3.99;100.00
59831;BME280;45711;50.108;13.712;2024-01-27T10:00:12;99554.81;;;4.09;100.00
59831;BME280;45711;50.108;13.712;2024-01-27T10:02:39;99565.81;;;4.06;100.00
59831;BME280;45711;50.108;13.712;2024-01-27T10:05:08;99558.69;;;4.07;100.00
59831;BME280;45711;50.108;13.712;2024-01-27T10:07:34;99570.47;;;4.04;100.00
59831;BME280;45711;50.108;13.712;2024-01-27T10:10:00;99566.56;;;4.00;100.00
59831;BME280;45711;50.108;13.712;2024-01-27T10:12:26;99573.47;;;3.94;100.00
59831;BME280;45711;50.108;13.712;2024-01-27T10:14:53;99573.69;;;3.93;100.00
59831;BME280;45711;50.108;13.712;2024-01-27T10:17:23;99561.06;;;3.95;100.00
59831;BME280;45711;50.108;13.712;2024-01-27T10:19:59;99574.28;;;3.95;100.00
59831;BME280;45711;50.108;13.712;2024-01-27T10:22:27;99574.94;;;3.97;100.00
59831;BME280;45711;50.108;13.712;2024-01-27T10:24:53;99561.88;;;3.95;100.00
59831;BME280;45711;50.108;13.712;2024-01-27T10:27:18;99573.06;;;3.91;100.00
59831;BME280;45711;50.108;13.712;2024-01-27T10:29:51;99572.88;;;3.92;100.00
59831;BME280;45711;50.108;13.712;2024-01-27T10:32:17;99567.75;;;3.91;100.00
59831;BME280;45711;50.108;13.712;2024-01-27T10:34:43;99568.38;;;3.93;100.00
59831;BME280;45711;50.108;13.712;2024-01-27T10:37:11;99582.81;;;3.90;100.00
59831;BME280;45711;50.108;13.712;2024-01-27T10:39:39;99578.16;;;3.92;100.00
59831;BME280;45711;50.108;13.712;2024-01-27T10:42:05;99581.22;;;3.96;100.00
59831;BME280;45711;50.108;13.712;2024-01-27T10:44:33;99592.84;;;3.95;100.00
59831;BME280;45711;50.108;13.712;2024-01-27T10:47:04;99578.97;;;3.93;100.00
59831;BME280;45711;50.108;13.712;2024-01-27T10:49:34;99580.63;;;3.94;100.00
59831;BME280;45711;50.108;13.712;2024-01-27T10:52:06;99567.16;;;3.95;100.00
59831;BME280;45711;50.108;13.712;2024-01-27T10:54:38;99565.75;;;3.93;100.00
59831;BME280;45711;50.108;13.712;2024-01-27T10:57:06;99569.44;;;3.98;100.00
59831;BME280;45711;50.108;13.712;2024-01-27T10:59:34;99573.91;;;3.98;100.00
59831;BME280;45711;50.108;13.712;2024-01-27T11:02:01;99564.34;;;4.03;100.00
59831;BME280;45711;50.108;13.712;2024-01-27T11:04:31;99553.97;;;4.02;100.00
59831;BME280;45711;50.108;13.712;2024-01-27T11:07:01;99556.25;;;4.05;100.00
59831;BME280;45711;50.108;13.712;2024-01-27T11:09:29;99560.91;;;4.03;100.00
59831;BME280;45711;50.108;13.712;2024-01-27T11:12:00;99559.66;;;3.99;100.00
59831;BME280;45711;50.108;13.712;2024-01-27T11:14:26;99555.00;;;4.01;100.00
59831;BME280;45711;50.108;13.712;2024-01-27T11:16:55;99565.81;;;4.06;100.00
59831;BME280;45711;50.108;13.712;2024-01-27T11:19:21;99565.59;;;4.01;100.00
59831;BME280;45711;50.108;13.712;2024-01-27T11:21:58;99562.69;;;3.96;100.00
59831;BME280;45711;50.108;13.712;2024-01-27T11:24:24;99561.31;;;4.07;100.00
59831;BME280;45711;50.108;13.712;2024-01-27T11:27:01;99558.63;;;4.00;100.00
59831;BME280;45711;50.108;13.712;2024-01-27T11:29:27;99547.66;;;4.03;100.00
59831;BME280;45711;50.108;13.712;2024-01-27T11:31:55;99544.63;;;4.06;100.00
59831;BME280;45711;50.108;13.712;2024-01-27T11:34:24;99543.56;;;4.00;100.00
59831;BME280;45711;50.108;13.712;2024-01-27T11:36:49;99550.50;;;4.01;100.00
59831;BME280;45711;50.108;13.712;2024-01-27T11:39:25;99544.63;;;4.06;100.00
59831;BME280;45711;50.108;13.712;2024-01-27T11:42:05;99536.34;;;4.22;100.00
59831;BME280;45711;50.108;13.712;2024-01-27T11:44:36;99543.00;;;4.05;100.00
59831;BME280;45711;50.108;13.712;2024-01-27T11:47:03;99532.63;;;4.17;100.00
59831;BME280;45711;50.108;13.712;2024-01-27T11:49:29;99537.50;;;4.13;100.00
59831;BME280;45711;50.108;13.712;2024-01-27T11:51:54;99538.34;;;4.14;100.00
59831;BME280;45711;50.108;13.712;2024-01-27T11:54:23;99550.53;;;4.08;100.00
59831;BME280;45711;50.108;13.712;2024-01-27T11:56:52;99555.97;;;4.00;100.00
59831;BME280;45711;50.108;13.712;2024-01-27T11:59:21;99559.28;;;4.09;100.00
59831;BME280;45711;50.108;13.712;2024-01-27T12:01:46;99560.94;;;4.10;100.00
59831;BME280;45711;50.108;13.712;2024-01-27T12:04:12;99551.94;;;4.04;100.00
59831;BME280;45711;50.108;13.712;2024-01-27T12:06:42;99567.22;;;4.02;100.00
59831;BME280;45711;50.108;13.712;2024-01-27T12:09:09;99555.44;;;4.11;100.00
59831;BME280;45711;50.108;13.712;2024-01-27T12:11:38;99557.06;;;4.06;100.00
59831;BME280;45711;50.108;13.712;2024-01-27T12:14:05;99555.47;;;4.18;100.00
59831;BME280;45711;50.108;13.712;2024-01-27T12:16:32;99553.81;;;4.10;100.00
59831;BME280;45711;50.108;13.712;2024-01-27T12:18:58;99543.09;;;4.32;100.00
59831;BME280;45711;50.108;13.712;2024-01-27T12:21:25;99543.22;;;4.10;100.00
59831;BME280;45711;50.108;13.712;2024-01-27T12:23:51;99545.81;;;4.03;100.00
59831;BME280;45711;50.108;13.712;2024-01-27T12:26:21;99538.91;;;4.09;100.00
59831;BME280;45711;50.108;13.712;2024-01-27T12:28:47;99522.84;;;4.17;100.00
59831;BME280;45711;50.108;13.712;2024-01-27T12:31:15;99521.31;;;4.36;100.00
59831;BME280;45711;50.108;13.712;2024-01-27T12:33:49;99516.34;;;4.20;100.00
59831;BME280;45711;50.108;13.712;2024-01-27T12:36:17;99530.25;;;4.28;100.00
59831;BME280;45711;50.108;13.712;2024-01-27T12:38:47;99522.25;;;4.15;100.00
59831;BME280;45711;50.108;13.712;2024-01-27T12:41:13;99537.16;;;4.23;100.00
59831;BME280;45711;50.108;13.712;2024-01-27T12:43:39;99523.63;;;4.59;100.00
59831;BME280;45711;50.108;13.712;2024-01-27T12:46:12;99522.63;;;4.67;100.00